createdAt,value
2023-03-15T00:01:47.964Z,9.88
2023-03-15T00:04:15.876Z,9.89
2023-03-15T00:06:43.780Z,9.89
2023-03-15T00:09:11.754Z,9.80
2023-03-15T00:11:39.754Z,9.61
2023-03-15T00:14:07.675Z,9.51
2023-03-15T00:16:35.614Z,9.48
2023-03-15T00:19:04.934Z,9.44
2023-03-15T00:21:32.824Z,9.44
2023-03-15T00:24:00.771Z,9.42
2023-03-15T00:26:28.884Z,9.30
2023-03-15T00:28:56.854Z,9.25
2023-03-15T00:31:25.937Z,9.23
2023-03-15T00:33:54.843Z,9.22
2023-03-15T00:36:24.767Z,9.20
2023-03-15T00:38:53.399Z,9.17
2023-03-15T00:41:21.802Z,9.16
2023-03-15T00:43:49.861Z,9.21
2023-03-15T00:46:18.013Z,9.10
2023-03-15T00:48:49.019Z,9.09
2023-03-15T00:51:17.656Z,9.14
2023-03-15T00:53:47.249Z,9.24
2023-03-15T00:56:16.141Z,9.22
2023-03-15T00:58:44.255Z,9.14
2023-03-15T01:01:13.578Z,9.05
2023-03-15T01:03:41.872Z,9.16
2023-03-15T01:06:10.955Z,9.10
2023-03-15T01:08:38.908Z,9.01
2023-03-15T01:11:09.088Z,8.99
2023-03-15T01:13:37.256Z,8.88
2023-03-15T01:16:05.780Z,8.88
2023-03-15T01:18:33.781Z,8.79
2023-03-15T01:21:01.748Z,8.72
2023-03-15T01:23:29.708Z,8.59
2023-03-15T01:26:00.716Z,8.48
2023-03-15T01:28:30.070Z,8.42
2023-03-15T01:30:59.860Z,8.30
2023-03-15T01:33:28.118Z,8.18
2023-03-15T01:36:02.193Z,8.11
2023-03-15T01:38:30.237Z,8.05
2023-03-15T01:40:58.195Z,7.97
2023-03-15T01:43:26.582Z,7.90
2023-03-15T01:46:01.353Z,7.85
2023-03-15T01:48:30.888Z,7.73
2023-03-15T01:50:58.804Z,7.72
2023-03-15T01:53:26.878Z,7.75
2023-03-15T01:55:54.796Z,7.64
2023-03-15T01:58:22.727Z,7.56
2023-03-15T02:00:52.987Z,7.43
2023-03-15T02:03:24.078Z,7.31
2023-03-15T02:05:54.821Z,7.26
2023-03-15T02:08:22.951Z,7.26
2023-03-15T02:10:51.993Z,7.22
2023-03-15T02:13:22.800Z,7.17
2023-03-15T02:15:50.802Z,7.10
2023-03-15T02:18:18.715Z,7.10
2023-03-15T02:20:50.224Z,7.07
2023-03-15T02:23:19.236Z,7.09
2023-03-15T02:25:49.683Z,7.02
2023-03-15T02:28:19.602Z,6.97
2023-03-15T02:30:47.645Z,6.97
2023-03-15T02:33:17.293Z,6.99
2023-03-15T02:35:45.281Z,6.96
2023-03-15T02:38:13.300Z,6.94
2023-03-15T02:40:41.292Z,6.95
2023-03-15T02:43:11.586Z,6.95
2023-03-15T02:45:40.952Z,7.00
2023-03-15T02:48:08.946Z,6.95
2023-03-15T02:50:36.930Z,6.92
2023-03-15T02:53:04.904Z,6.87
2023-03-15T02:55:33.205Z,6.80
2023-03-15T02:58:01.181Z,6.72
2023-03-15T03:00:29.580Z,6.62
2023-03-15T03:02:58.938Z,6.66
2023-03-15T03:05:26.964Z,6.65
2023-03-15T03:07:55.236Z,6.67
2023-03-15T03:10:23.318Z,6.68
2023-03-15T03:12:53.677Z,6.62
2023-03-15T03:15:21.998Z,6.67
2023-03-15T03:17:49.958Z,6.71
2023-03-15T03:20:19.512Z,6.72
2023-03-15T03:22:47.499Z,6.67
2023-03-15T03:25:15.488Z,6.75
2023-03-15T03:27:44.101Z,6.70
2023-03-15T03:30:14.260Z,6.69
2023-03-15T03:32:42.440Z,6.63
2023-03-15T03:35:10.859Z,6.65
2023-03-15T03:37:40.186Z,6.68
2023-03-15T03:40:09.750Z,6.70
2023-03-15T03:42:37.657Z,6.69
2023-03-15T03:45:06.288Z,6.66
2023-03-15T03:47:34.225Z,6.68
2023-03-15T03:50:02.200Z,6.71
2023-03-15T03:52:30.398Z,6.70
2023-03-15T03:54:59.762Z,6.65
2023-03-15T03:57:27.676Z,6.67
2023-03-15T03:59:55.602Z,6.69
2023-03-15T04:02:23.593Z,6.66
2023-03-15T04:04:51.557Z,6.63
2023-03-15T04:07:19.524Z,6.61
2023-03-15T04:09:47.472Z,6.60
2023-03-15T04:12:16.838Z,6.62
2023-03-15T04:14:44.817Z,6.61
2023-03-15T04:17:12.732Z,6.50
2023-03-15T04:19:40.654Z,6.53
2023-03-15T04:22:08.786Z,6.53
2023-03-15T04:24:36.759Z,6.55
2023-03-15T04:27:05.609Z,6.63
2023-03-15T04:29:34.990Z,6.64
2023-03-15T04:32:02.927Z,6.64
2023-03-15T04:34:30.956Z,6.68
2023-03-15T04:36:58.944Z,6.81
2023-03-15T04:39:26.861Z,6.85
2023-03-15T04:41:55.626Z,7.12
2023-03-15T04:44:26.616Z,7.40
2023-03-15T04:46:56.283Z,7.69
2023-03-15T04:49:24.267Z,7.97
2023-03-15T04:51:52.260Z,8.26
2023-03-15T04:54:20.241Z,8.53
2023-03-15T04:56:48.190Z,8.80
2023-03-15T04:59:16.153Z,9.07
2023-03-15T05:01:44.138Z,9.28
2023-03-15T05:04:13.950Z,9.53
2023-03-15T05:06:41.899Z,9.93
2023-03-15T05:09:09.848Z,10.30
2023-03-15T05:11:37.865Z,11.31
2023-03-15T05:14:05.776Z,12.98
2023-03-15T05:16:33.808Z,13.96
2023-03-15T05:19:01.757Z,14.09
2023-03-15T05:21:32.805Z,13.70
2023-03-15T05:24:00.762Z,13.15
2023-03-15T05:26:28.677Z,12.86
2023-03-15T05:28:56.654Z,12.68
2023-03-15T05:31:24.715Z,12.62
2023-03-15T05:33:54.489Z,12.60
2023-03-15T05:36:22.481Z,12.64
2023-03-15T05:38:51.841Z,12.64
2023-03-15T05:41:19.860Z,12.80
2023-03-15T05:43:47.846Z,12.89
2023-03-15T05:46:15.879Z,13.06
2023-03-15T05:48:43.889Z,13.21
2023-03-15T05:51:13.268Z,13.17
2023-03-15T05:53:41.357Z,13.23
2023-03-15T05:56:10.931Z,13.37
2023-03-15T05:58:38.900Z,13.20
2023-03-15T06:01:06.958Z,13.36
2023-03-15T06:03:34.922Z,13.59
2023-03-15T06:06:03.475Z,13.88
2023-03-15T06:08:31.415Z,14.19
2023-03-15T06:10:59.373Z,14.50
2023-03-15T06:13:28.743Z,14.64
2023-03-15T06:15:56.712Z,14.75
2023-03-15T06:18:24.645Z,14.89
2023-03-15T06:20:52.632Z,14.94
2023-03-15T06:23:20.611Z,14.98
2023-03-15T06:25:48.563Z,14.77
2023-03-15T06:28:16.585Z,15.06
2023-03-15T06:30:45.996Z,15.25
2023-03-15T06:33:14.015Z,15.48
2023-03-15T06:35:42.262Z,15.85
2023-03-15T06:38:11.959Z,16.11
2023-03-15T06:40:40.033Z,16.33
2023-03-15T06:43:08.324Z,16.61
2023-03-15T06:45:36.293Z,16.77
2023-03-15T06:48:06.047Z,17.03
2023-03-15T06:50:46.002Z,17.31
2023-03-15T06:53:14.742Z,17.66
2023-03-15T06:55:42.915Z,17.84
2023-03-15T06:58:10.937Z,17.90
2023-03-15T07:00:38.921Z,17.37
2023-03-15T07:03:08.287Z,17.42
2023-03-15T07:05:37.172Z,17.43
2023-03-15T07:08:05.426Z,17.60
2023-03-15T07:10:33.383Z,17.47
2023-03-15T07:13:01.339Z,17.40
2023-03-15T07:15:29.600Z,16.85
2023-03-15T07:17:57.555Z,17.07
2023-03-15T07:20:26.903Z,17.26
2023-03-15T07:22:54.846Z,17.44
2023-03-15T07:25:24.140Z,17.32
2023-03-15T07:27:52.183Z,17.09
2023-03-15T07:30:20.360Z,17.09
2023-03-15T07:32:48.448Z,17.24
2023-03-15T07:35:18.185Z,17.45
2023-03-15T07:37:47.594Z,18.00
2023-03-15T07:40:16.345Z,18.71
2023-03-15T07:42:44.412Z,19.04
2023-03-15T07:45:12.977Z,18.66
2023-03-15T07:47:41.064Z,18.27
2023-03-15T07:50:10.215Z,18.31
2023-03-15T07:52:38.162Z,18.28
2023-03-15T07:55:08.965Z,17.88
2023-03-15T07:57:36.921Z,17.91
2023-03-15T08:00:06.202Z,17.91
2023-03-15T08:02:34.195Z,17.48
2023-03-15T08:05:02.149Z,17.46
2023-03-15T08:07:30.049Z,17.57
2023-03-15T08:09:58.107Z,17.27
2023-03-15T08:12:27.450Z,17.45
2023-03-15T08:14:55.399Z,17.33
2023-03-15T08:17:23.318Z,17.27
2023-03-15T08:19:51.302Z,17.29
2023-03-15T08:22:19.271Z,17.51
2023-03-15T08:24:47.243Z,17.84
2023-03-15T08:27:15.220Z,17.92
2023-03-15T08:29:44.513Z,17.95
2023-03-15T08:32:13.072Z,17.93
2023-03-15T08:34:41.566Z,17.92
2023-03-15T08:37:11.928Z,17.96
2023-03-15T08:39:39.917Z,17.71
2023-03-15T08:42:07.962Z,17.67
2023-03-15T08:44:36.403Z,17.64
2023-03-15T08:47:06.331Z,17.50
2023-03-15T08:49:34.652Z,17.65
2023-03-15T08:52:02.625Z,17.81
2023-03-15T08:54:30.536Z,18.02
2023-03-15T08:56:59.608Z,18.30
2023-03-15T08:59:32.071Z,18.45
2023-03-15T09:02:01.157Z,18.14
2023-03-15T09:04:30.984Z,17.76
2023-03-15T09:06:59.001Z,17.85
2023-03-15T09:09:27.159Z,17.61
2023-03-15T09:11:56.261Z,17.89
2023-03-15T09:14:24.263Z,17.97
2023-03-15T09:16:52.292Z,17.74
2023-03-15T09:19:20.322Z,17.63
2023-03-15T09:21:49.611Z,17.57
2023-03-15T09:24:17.565Z,17.69
2023-03-15T09:26:45.729Z,18.02
2023-03-15T09:29:14.209Z,18.33
2023-03-15T09:31:42.179Z,18.58
2023-03-15T09:34:10.502Z,18.82
2023-03-15T09:36:38.481Z,19.15
2023-03-15T09:39:08.477Z,19.53
2023-03-15T09:41:42.876Z,20.00
2023-03-15T09:44:16.988Z,20.38
2023-03-15T09:46:48.279Z,20.82
2023-03-15T09:49:18.819Z,20.67
2023-03-15T09:51:48.504Z,20.95
2023-03-15T09:54:19.476Z,21.09
2023-03-15T09:56:51.601Z,21.00
2023-03-15T09:59:22.862Z,20.62
2023-03-15T10:01:50.996Z,20.53
2023-03-15T10:04:23.695Z,20.38
2023-03-15T10:06:54.825Z,20.21
2023-03-15T10:09:24.966Z,20.37
2023-03-15T10:12:00.343Z,20.71
2023-03-15T10:14:33.818Z,20.88
2023-03-15T10:17:01.757Z,20.77
2023-03-15T10:19:33.354Z,20.78
2023-03-15T10:22:02.686Z,20.71
2023-03-15T10:24:36.207Z,20.73
2023-03-15T10:27:10.918Z,20.69
2023-03-15T10:29:38.836Z,20.70
2023-03-15T10:32:07.397Z,20.69
2023-03-15T10:34:35.415Z,20.57
2023-03-15T10:37:06.380Z,20.78
2023-03-15T10:39:35.676Z,20.83
2023-03-15T10:42:03.952Z,21.30
2023-03-15T10:44:31.908Z,21.65
2023-03-15T10:47:05.050Z,22.82
2023-03-15T10:49:38.890Z,23.97
2023-03-15T10:52:06.955Z,25.20
2023-03-15T10:54:36.282Z,24.93
2023-03-15T10:57:05.377Z,24.41
2023-03-15T10:59:34.145Z,23.88
2023-03-15T11:02:21.259Z,23.74
2023-03-15T11:04:50.225Z,23.32
2023-03-15T11:07:18.545Z,23.52
2023-03-15T11:09:53.297Z,23.52
2023-03-15T11:12:24.231Z,23.37
2023-03-15T11:14:53.755Z,23.46
2023-03-15T11:17:22.612Z,22.79
2023-03-15T11:19:55.502Z,23.02
2023-03-15T11:22:23.544Z,23.37
2023-03-15T11:24:54.565Z,23.32
2023-03-15T11:27:23.735Z,23.51
2023-03-15T11:29:53.015Z,23.31
2023-03-15T11:32:22.219Z,23.48
2023-03-15T11:34:55.312Z,23.43
2023-03-15T11:37:24.081Z,23.52
2023-03-15T11:40:05.069Z,23.74
2023-03-15T11:42:40.283Z,24.75
2023-03-15T11:45:13.329Z,27.01
2023-03-15T11:47:43.515Z,29.33
2023-03-15T11:50:13.223Z,30.36
2023-03-15T11:52:41.404Z,30.84
2023-03-15T11:55:18.947Z,32.10
2023-03-15T11:57:47.110Z,32.30
2023-03-15T12:00:21.828Z,32.75
2023-03-15T12:02:51.007Z,33.27
2023-03-15T12:05:44.134Z,32.50
2023-03-15T12:08:20.046Z,31.66
2023-03-15T12:10:49.872Z,31.27
2023-03-15T12:13:25.158Z,30.05
2023-03-15T12:15:53.312Z,29.72
2023-03-15T12:18:29.593Z,29.93
2023-03-15T12:21:17.320Z,31.12
2023-03-15T12:23:47.668Z,31.10
2023-03-15T12:26:24.682Z,30.60
2023-03-15T12:28:53.972Z,29.51
2023-03-15T12:31:21.962Z,29.18
2023-03-15T12:33:50.859Z,29.88
2023-03-15T12:36:25.473Z,29.49
2023-03-15T12:39:00.973Z,27.57
2023-03-15T12:41:39.070Z,26.11
2023-03-15T12:44:34.896Z,24.63
2023-03-15T12:47:02.990Z,23.61
2023-03-15T12:49:36.133Z,22.85
2023-03-15T12:52:05.260Z,22.01
2023-03-15T12:54:38.492Z,21.21
2023-03-15T12:57:07.954Z,21.20
2023-03-15T12:59:42.113Z,21.02
2023-03-15T13:02:35.685Z,20.71
2023-03-15T13:05:24.751Z,20.30
2023-03-15T13:07:59.364Z,19.92
2023-03-15T13:10:39.249Z,19.83
2023-03-15T13:13:18.105Z,19.55
2023-03-15T13:15:49.289Z,19.37
2023-03-15T13:18:19.501Z,19.19
2023-03-15T13:20:52.854Z,19.01
2023-03-15T13:23:23.600Z,18.95
2023-03-15T13:26:05.307Z,18.79
2023-03-15T13:28:37.399Z,18.49
2023-03-15T13:31:13.309Z,18.43
2023-03-15T13:33:41.314Z,18.40
2023-03-15T13:36:14.998Z,18.36
2023-03-15T13:38:43.596Z,18.34
2023-03-15T13:41:17.485Z,18.25
2023-03-15T13:43:47.161Z,18.39
2023-03-15T13:46:15.098Z,18.42
2023-03-15T13:48:43.744Z,18.38
2023-03-15T13:51:16.126Z,18.33
2023-03-15T13:53:49.980Z,18.44
2023-03-15T13:56:19.381Z,18.54
2023-03-15T13:58:48.695Z,18.71
2023-03-15T14:01:16.615Z,18.66
2023-03-15T14:03:44.615Z,18.69
2023-03-15T14:06:13.658Z,18.64
2023-03-15T14:08:41.680Z,18.48
2023-03-15T14:11:12.430Z,18.10
2023-03-15T14:13:50.188Z,18.02
2023-03-15T14:16:19.254Z,18.00
2023-03-15T14:18:51.368Z,17.86
2023-03-15T14:21:21.008Z,17.80
2023-03-15T14:23:49.906Z,17.77
2023-03-15T14:26:18.794Z,17.79
2023-03-15T14:28:52.167Z,17.57
2023-03-15T14:31:24.412Z,17.54
2023-03-15T14:33:55.896Z,17.63
2023-03-15T14:36:24.901Z,17.61
2023-03-15T14:38:53.402Z,17.65
2023-03-15T14:41:26.674Z,17.59
2023-03-15T14:43:55.965Z,17.51
2023-03-15T14:46:23.886Z,17.33
2023-03-15T14:48:51.853Z,17.04
2023-03-15T14:51:21.119Z,16.76
2023-03-15T14:53:50.657Z,16.44
2023-03-15T14:56:19.896Z,16.31
2023-03-15T14:58:49.536Z,16.25
2023-03-15T15:01:22.457Z,16.03
2023-03-15T15:03:52.549Z,15.92
2023-03-15T15:06:21.874Z,15.72
2023-03-15T15:08:49.844Z,15.62
2023-03-15T15:11:17.787Z,15.57
2023-03-15T15:13:45.799Z,15.47
2023-03-15T15:16:13.790Z,15.37
2023-03-15T15:18:43.140Z,15.26
2023-03-15T15:21:14.104Z,15.19
2023-03-15T15:23:56.945Z,15.05
2023-03-15T15:26:27.221Z,14.94
2023-03-15T15:28:55.363Z,14.93
2023-03-15T15:31:24.415Z,14.92
2023-03-15T15:33:54.262Z,14.82
2023-03-15T15:36:23.788Z,14.77
2023-03-15T15:38:51.756Z,14.74
2023-03-15T15:41:22.320Z,14.66
2023-03-15T15:43:50.258Z,14.61
2023-03-15T15:46:18.238Z,14.54
2023-03-15T15:48:46.180Z,14.47
2023-03-15T15:51:21.942Z,14.36
2023-03-15T15:53:49.880Z,14.41
2023-03-15T15:56:18.414Z,14.42
2023-03-15T15:58:46.395Z,14.33
2023-03-15T16:01:14.718Z,14.33
2023-03-15T16:03:43.019Z,14.29
2023-03-15T16:06:17.761Z,14.24
2023-03-15T16:08:45.736Z,14.16
2023-03-15T16:11:14.402Z,14.06
2023-03-15T16:13:42.318Z,13.95
2023-03-15T16:16:13.618Z,13.89
2023-03-15T16:18:41.634Z,13.76
2023-03-15T16:21:12.648Z,13.70
2023-03-15T16:23:42.017Z,13.70
2023-03-15T16:26:10.887Z,13.61
2023-03-15T16:28:38.862Z,13.63
2023-03-15T16:31:07.213Z,13.66
2023-03-15T16:33:35.296Z,13.59
2023-03-15T16:36:03.229Z,13.55
2023-03-15T16:38:32.390Z,13.58
2023-03-15T16:41:02.036Z,13.60
2023-03-15T16:43:29.994Z,13.51
2023-03-15T16:45:57.948Z,13.51
2023-03-15T16:48:25.912Z,13.46
2023-03-15T16:50:55.418Z,13.47
2023-03-15T16:53:25.334Z,13.42
2023-03-15T16:55:53.308Z,13.40
2023-03-15T16:58:22.640Z,13.36
2023-03-15T17:00:50.665Z,13.27
2023-03-15T17:03:18.654Z,13.19
2023-03-15T17:05:47.188Z,13.11
2023-03-15T17:08:16.658Z,13.06
2023-03-15T17:10:44.633Z,12.98
2023-03-15T17:13:14.852Z,12.85
2023-03-15T17:15:44.279Z,12.77
2023-03-15T17:18:16.309Z,12.68
2023-03-15T17:20:44.265Z,12.54
2023-03-15T17:23:12.704Z,12.49
2023-03-15T17:25:41.202Z,12.52
2023-03-15T17:28:09.125Z,12.50
2023-03-15T17:30:38.019Z,12.51
2023-03-15T17:33:07.432Z,12.52
2023-03-15T17:35:36.140Z,12.50
2023-03-15T17:38:04.298Z,12.53
2023-03-15T17:40:32.979Z,12.48
2023-03-15T17:43:01.883Z,12.51
2023-03-15T17:45:30.935Z,12.44
2023-03-15T17:47:59.601Z,12.49
2023-03-15T17:50:29.786Z,12.49
2023-03-15T17:52:58.359Z,12.47
2023-03-15T17:55:27.473Z,12.37
2023-03-15T17:57:55.800Z,12.25
2023-03-15T18:00:24.978Z,12.25
2023-03-15T18:02:56.031Z,12.26
2023-03-15T18:05:25.472Z,12.35
2023-03-15T18:08:01.926Z,12.26
2023-03-15T18:10:32.745Z,12.28
2023-03-15T18:13:00.733Z,12.27
2023-03-15T18:15:28.758Z,12.18
2023-03-15T18:17:56.709Z,12.23
2023-03-15T18:20:25.955Z,12.20
2023-03-15T18:22:55.327Z,12.18
2023-03-15T18:25:24.449Z,12.18
2023-03-15T18:27:52.426Z,12.19
2023-03-15T18:30:21.177Z,12.19
2023-03-15T18:32:49.153Z,12.19
2023-03-15T18:35:19.004Z,12.14
2023-03-15T18:37:46.978Z,12.10
2023-03-15T18:40:17.548Z,12.14
2023-03-15T18:42:45.589Z,12.09
2023-03-15T18:45:17.428Z,12.06
2023-03-15T18:47:45.392Z,12.09
2023-03-15T18:50:13.525Z,12.06
2023-03-15T18:52:41.545Z,12.00
2023-03-15T18:55:10.105Z,11.96
2023-03-15T18:57:41.550Z,11.96
2023-03-15T19:00:13.728Z,11.92
2023-03-15T19:02:42.112Z,11.89
2023-03-15T19:05:10.592Z,11.83
2023-03-15T19:07:38.714Z,11.86
2023-03-15T19:10:07.581Z,11.89
2023-03-15T19:12:35.835Z,11.80
2023-03-15T19:15:05.712Z,11.85
2023-03-15T19:17:33.735Z,11.88
2023-03-15T19:20:01.705Z,11.82
2023-03-15T19:22:31.129Z,11.87
2023-03-15T19:24:59.095Z,11.85
2023-03-15T19:27:27.340Z,11.83
2023-03-15T19:29:55.319Z,11.83
2023-03-15T19:32:24.713Z,11.77
2023-03-15T19:34:52.665Z,11.80
2023-03-15T19:37:20.579Z,11.84
2023-03-15T19:39:49.394Z,11.87
2023-03-15T19:42:17.322Z,11.86
2023-03-15T19:44:47.425Z,11.84
2023-03-15T19:47:15.427Z,11.84
2023-03-15T19:49:44.717Z,11.70
2023-03-15T19:52:14.510Z,11.74
2023-03-15T19:54:42.426Z,11.77
2023-03-15T19:57:10.364Z,11.65
2023-03-15T19:59:40.047Z,11.59
2023-03-15T20:02:08.355Z,11.58
2023-03-15T20:04:36.887Z,11.52
2023-03-15T20:07:06.262Z,11.50
2023-03-15T20:09:38.075Z,11.52
2023-03-15T20:12:06.826Z,11.46
2023-03-15T20:14:34.788Z,11.41
2023-03-15T20:17:03.353Z,11.47
2023-03-15T20:19:31.383Z,11.44
2023-03-15T20:21:59.307Z,11.49
2023-03-15T20:24:28.613Z,11.47
2023-03-15T20:26:56.627Z,11.49
2023-03-15T20:29:24.599Z,11.40
2023-03-15T20:31:53.440Z,11.38
2023-03-15T20:34:22.112Z,11.30
2023-03-15T20:36:50.067Z,11.26
2023-03-15T20:39:18.487Z,11.36
2023-03-15T20:41:47.875Z,11.32
2023-03-15T20:44:15.773Z,11.32
2023-03-15T20:46:43.864Z,11.30
2023-03-15T20:49:12.182Z,11.29
2023-03-15T20:51:40.164Z,11.33
2023-03-15T20:54:08.172Z,11.38
2023-03-15T20:56:36.858Z,11.40
2023-03-15T20:59:06.198Z,11.33
2023-03-15T21:01:34.568Z,11.29
2023-03-15T21:04:02.494Z,11.26
2023-03-15T21:06:30.515Z,11.26
2023-03-15T21:08:58.465Z,11.30
2023-03-15T21:11:26.446Z,11.31
2023-03-15T21:13:54.618Z,11.31
2023-03-15T21:16:25.987Z,11.27
2023-03-15T21:18:54.969Z,11.36
2023-03-15T21:21:23.176Z,11.33
2023-03-15T21:23:51.094Z,11.30
2023-03-15T21:26:19.073Z,11.22
2023-03-15T21:28:47.116Z,11.30
2023-03-15T21:31:15.482Z,11.25
2023-03-15T21:33:44.802Z,11.26
2023-03-15T21:36:12.773Z,11.22
2023-03-15T21:38:40.914Z,11.25
2023-03-15T21:41:09.404Z,11.29
2023-03-15T21:43:37.555Z,11.27
2023-03-15T21:46:07.222Z,11.24
2023-03-15T21:48:35.444Z,11.18
2023-03-15T21:51:04.967Z,11.25
2023-03-15T21:53:34.033Z,11.22
2023-03-15T21:56:02.153Z,11.25
2023-03-15T21:58:30.277Z,11.27
2023-03-15T22:00:59.422Z,11.28
2023-03-15T22:03:27.566Z,11.28
2023-03-15T22:05:55.577Z,11.28
2023-03-15T22:08:24.921Z,11.03
2023-03-15T22:10:54.167Z,11.19
2023-03-15T22:13:22.132Z,11.25
2023-03-15T22:15:50.103Z,11.30
2023-03-15T22:18:18.025Z,11.23
2023-03-15T22:20:47.716Z,11.25
2023-03-15T22:23:15.695Z,11.25
2023-03-15T22:25:44.973Z,11.16
2023-03-15T22:28:12.990Z,11.23
2023-03-15T22:30:41.074Z,11.08
2023-03-15T22:33:09.765Z,11.16
2023-03-15T22:35:37.727Z,11.19
2023-03-15T22:38:10.125Z,11.22
2023-03-15T22:40:39.068Z,11.16
2023-03-15T22:43:08.672Z,11.09
2023-03-15T22:45:36.686Z,11.05
2023-03-15T22:48:04.690Z,11.10
2023-03-15T22:50:32.658Z,11.12
2023-03-15T22:53:00.569Z,11.09
2023-03-15T22:55:28.516Z,11.08
2023-03-15T22:57:56.462Z,11.07
2023-03-15T23:00:26.199Z,11.09
2023-03-15T23:02:54.352Z,11.07
2023-03-15T23:05:22.330Z,11.08
2023-03-15T23:07:50.296Z,11.01
2023-03-15T23:10:18.217Z,11.02
2023-03-15T23:12:46.177Z,11.01
2023-03-15T23:15:14.571Z,10.98
2023-03-15T23:17:46.515Z,11.00
2023-03-15T23:20:15.492Z,11.04
2023-03-15T23:22:43.485Z,11.04
2023-03-15T23:25:13.066Z,11.06
2023-03-15T23:27:41.095Z,11.08
2023-03-15T23:30:10.512Z,11.09
2023-03-15T23:32:38.537Z,11.07
2023-03-15T23:35:09.361Z,11.10
2023-03-15T23:37:37.260Z,11.09
2023-03-15T23:40:11.340Z,11.01
2023-03-15T23:42:39.262Z,11.07
2023-03-15T23:45:08.390Z,11.02
2023-03-15T23:47:36.412Z,11.05
2023-03-15T23:50:04.370Z,10.95
2023-03-15T23:52:33.721Z,11.00
2023-03-15T23:55:01.688Z,10.93
2023-03-15T23:57:29.617Z,10.93
2023-03-15T23:59:57.511Z,10.96
